sensor_id;sensor_type;location;lat;lon;timestamp;pressure;altitude;pressure_sealevel;temperature;humidity
61055;BME280;46939;48.940;8.258;2022-11-06T00:01:31;100818.56;;;14.78;45.85
61055;BME280;46939;48.940;8.258;2022-11-06T00:03:59;100834.16;;;14.81;45.45
61055;BME280;46939;48.940;8.258;2022-11-06T00:06:28;100820.00;;;14.74;45.46
61055;BME280;46939;48.940;8.258;2022-11-06T00:09:12;100827.81;;;14.69;45.71
61055;BME280;46939;48.940;8.258;2022-11-06T00:11:41;100834.13;;;14.54;44.99
61055;BME280;46939;48.940;8.258;2022-11-06T00:14:10;100841.91;;;14.56;45.30
61055;BME280;46939;48.940;8.258;2022-11-06T00:16:39;100840.28;;;14.55;45.27
61055;BME280;46939;48.940;8.258;2022-11-06T00:19:08;100841.69;;;14.51;45.24
61055;BME280;46939;48.940;8.258;2022-11-06T00:21:37;100853.75;;;14.47;45.15
61055;BME280;46939;48.940;8.258;2022-11-06T00:24:07;100848.66;;;14.52;45.40
61055;BME280;46939;48.940;8.258;2022-11-06T00:26:38;100853.19;;;14.51;45.28
61055;BME280;46939;48.940;8.258;2022-11-06T00:29:07;100848.28;;;14.55;45.62
61055;BME280;46939;48.940;8.258;2022-11-06T00:31:36;100844.38;;;14.51;45.24
61055;BME280;46939;48.940;8.258;2022-11-06T00:34:05;100833.03;;;14.42;45.50
61055;BME280;46939;48.940;8.258;2022-11-06T00:36:34;100833.00;;;14.22;44.98
61055;BME280;46939;48.940;8.258;2022-11-06T00:39:03;100832.97;;;14.15;44.90
61055;BME280;46939;48.940;8.258;2022-11-06T00:41:31;100838.22;;;14.02;45.17
61055;BME280;46939;48.940;8.258;2022-11-06T00:44:03;100839.09;;;14.09;45.34
61055;BME280;46939;48.940;8.258;2022-11-06T00:46:31;100822.72;;;14.12;45.22
61055;BME280;46939;48.940;8.258;2022-11-06T00:49:00;100822.72;;;14.12;45.76
61055;BME280;46939;48.940;8.258;2022-11-06T00:51:29;100828.25;;;14.17;45.32
61055;BME280;46939;48.940;8.258;2022-11-06T00:54:01;100833.78;;;14.16;45.54
61055;BME280;46939;48.940;8.258;2022-11-06T00:56:30;100831.72;;;14.11;45.74
61055;BME280;46939;48.940;8.258;2022-11-06T00:59:02;100830.47;;;14.07;45.50
61055;BME280;46939;48.940;8.258;2022-11-06T01:01:32;100832.94;;;14.09;45.58
61055;BME280;46939;48.940;8.258;2022-11-06T01:04:03;100825.56;;;14.04;45.58
61055;BME280;46939;48.940;8.258;2022-11-06T01:06:34;100821.66;;;14.00;45.40
61055;BME280;46939;48.940;8.258;2022-11-06T01:09:03;100816.03;;;13.82;45.93
61055;BME280;46939;48.940;8.258;2022-11-06T01:11:34;100817.63;;;13.70;46.01
61055;BME280;46939;48.940;8.258;2022-11-06T01:14:06;100822.72;;;13.64;46.20
61055;BME280;46939;48.940;8.258;2022-11-06T01:16:35;100819.63;;;13.67;46.02
61055;BME280;46939;48.940;8.258;2022-11-06T01:19:03;100814.31;;;13.67;45.95
61055;BME280;46939;48.940;8.258;2022-11-06T01:21:34;100813.88;;;13.64;45.91
61055;BME280;46939;48.940;8.258;2022-11-06T01:24:05;100818.81;;;13.67;45.87
61055;BME280;46939;48.940;8.258;2022-11-06T01:26:34;100829.94;;;13.77;45.50
61055;BME280;46939;48.940;8.258;2022-11-06T01:29:09;100836.31;;;13.83;45.47
61055;BME280;46939;48.940;8.258;2022-11-06T01:31:39;100837.16;;;13.90;45.71
61055;BME280;46939;48.940;8.258;2022-11-06T01:34:09;100832.25;;;13.93;45.59
61055;BME280;46939;48.940;8.258;2022-11-06T01:36:38;100831.84;;;13.90;45.81
61055;BME280;46939;48.940;8.258;2022-11-06T01:39:08;100819.97;;;13.92;46.14
61055;BME280;46939;48.940;8.258;2022-11-06T01:41:40;100821.19;;;13.90;45.78
61055;BME280;46939;48.940;8.258;2022-11-06T01:47:18;100800.69;;;13.84;46.02
61055;BME280;46939;48.940;8.258;2022-11-06T01:49:48;100795.16;;;13.85;45.84
61055;BME280;46939;48.940;8.258;2022-11-06T01:52:19;100784.47;;;13.79;45.62
61055;BME280;46939;48.940;8.258;2022-11-06T01:54:51;100777.72;;;13.76;45.80
61055;BME280;46939;48.940;8.258;2022-11-06T01:57:21;100779.13;;;13.72;45.40
61055;BME280;46939;48.940;8.258;2022-11-06T01:59:51;100767.66;;;13.78;45.76
61055;BME280;46939;48.940;8.258;2022-11-06T02:02:24;100773.38;;;13.75;45.65
61055;BME280;46939;48.940;8.258;2022-11-06T02:04:52;100767.25;;;13.75;45.71
61055;BME280;46939;48.940;8.258;2022-11-06T02:07:20;100763.16;;;13.79;45.20
61055;BME280;46939;48.940;8.258;2022-11-06T02:09:49;100745.94;;;13.75;45.44
61055;BME280;46939;48.940;8.258;2022-11-06T02:12:27;100741.66;;;13.74;45.36
61055;BME280;46939;48.940;8.258;2022-11-06T02:15:01;100746.19;;;13.86;45.29
61055;BME280;46939;48.940;8.258;2022-11-06T02:17:49;100739.41;;;13.77;45.60
61055;BME280;46939;48.940;8.258;2022-11-06T02:20:24;100732.44;;;13.76;45.26
61055;BME280;46939;48.940;8.258;2022-11-06T02:23:12;100725.88;;;13.72;45.95
61055;BME280;46939;48.940;8.258;2022-11-06T02:25:51;100721.78;;;13.76;45.79
61055;BME280;46939;48.940;8.258;2022-11-06T02:28:27;100713.38;;;13.79;45.75
61055;BME280;46939;48.940;8.258;2022-11-06T02:31:00;100704.56;;;13.72;45.65
61055;BME280;46939;48.940;8.258;2022-11-06T02:33:33;100705.59;;;13.78;45.30
61055;BME280;46939;48.940;8.258;2022-11-06T02:36:06;100703.75;;;13.78;45.25
61055;BME280;46939;48.940;8.258;2022-11-06T02:38:39;100710.97;;;13.84;45.48
61055;BME280;46939;48.940;8.258;2022-11-06T02:41:12;100718.34;;;13.89;45.14
61055;BME280;46939;48.940;8.258;2022-11-06T02:43:48;100708.47;;;13.76;44.69
61055;BME280;46939;48.940;8.258;2022-11-06T02:46:21;100707.81;;;13.61;44.68
61055;BME280;46939;48.940;8.258;2022-11-06T02:48:55;100707.97;;;13.53;44.80
61055;BME280;46939;48.940;8.258;2022-11-06T02:51:28;100706.97;;;13.60;44.99
61055;BME280;46939;48.940;8.258;2022-11-06T02:53:59;100703.22;;;13.41;45.54
61055;BME280;46939;48.940;8.258;2022-11-06T02:56:33;100698.91;;;13.40;45.12
61055;BME280;46939;48.940;8.258;2022-11-06T02:59:08;100709.00;;;13.17;44.65
61055;BME280;46939;48.940;8.258;2022-11-06T03:01:41;100705.53;;;13.16;44.36
61055;BME280;46939;48.940;8.258;2022-11-06T03:04:15;100699.16;;;13.11;44.90
61055;BME280;46939;48.940;8.258;2022-11-06T03:06:50;100690.34;;;13.10;45.04
61055;BME280;46939;48.940;8.258;2022-11-06T03:09:21;100693.03;;;13.17;45.04
61055;BME280;46939;48.940;8.258;2022-11-06T03:11:57;100676.97;;;13.32;44.49
61055;BME280;46939;48.940;8.258;2022-11-06T03:14:33;100686.38;;;13.28;44.37
61055;BME280;46939;48.940;8.258;2022-11-06T03:17:09;100695.53;;;13.18;44.53
61055;BME280;46939;48.940;8.258;2022-11-06T03:19:45;100703.47;;;13.12;44.84
61055;BME280;46939;48.940;8.258;2022-11-06T03:22:22;100711.38;;;13.05;45.09
61055;BME280;46939;48.940;8.258;2022-11-06T03:24:58;100707.53;;;13.08;44.90
61055;BME280;46939;48.940;8.258;2022-11-06T03:27:33;100701.13;;;13.02;44.84
61055;BME280;46939;48.940;8.258;2022-11-06T03:30:07;100693.97;;;12.96;44.77
61055;BME280;46939;48.940;8.258;2022-11-06T03:32:38;100685.72;;;12.91;45.15
61055;BME280;46939;48.940;8.258;2022-11-06T03:35:12;100684.72;;;12.92;45.07
61055;BME280;46939;48.940;8.258;2022-11-06T03:37:48;100683.75;;;13.00;44.89
61055;BME280;46939;48.940;8.258;2022-11-06T03:40:20;100670.13;;;12.81;45.39
61055;BME280;46939;48.940;8.258;2022-11-06T03:42:52;100669.97;;;12.89;45.32
61055;BME280;46939;48.940;8.258;2022-11-06T03:45:26;100675.94;;;12.91;45.18
61055;BME280;46939;48.940;8.258;2022-11-06T03:47:59;100664.22;;;12.86;45.53
61055;BME280;46939;48.940;8.258;2022-11-06T03:50:31;100667.91;;;12.85;45.25
61055;BME280;46939;48.940;8.258;2022-11-06T03:53:04;100669.31;;;12.81;44.97
61055;BME280;46939;48.940;8.258;2022-11-06T03:55:37;100664.59;;;12.76;45.16
61055;BME280;46939;48.940;8.258;2022-11-06T03:58:11;100661.28;;;12.74;44.77
61055;BME280;46939;48.940;8.258;2022-11-06T04:00:44;100655.69;;;12.62;44.53
61055;BME280;46939;48.940;8.258;2022-11-06T04:03:16;100644.84;;;12.57;44.35
61055;BME280;46939;48.940;8.258;2022-11-06T04:05:49;100639.78;;;12.41;44.47
61055;BME280;46939;48.940;8.258;2022-11-06T04:08:20;100631.00;;;12.40;44.82
61055;BME280;46939;48.940;8.258;2022-11-06T04:11:06;100643.09;;;12.43;44.71
61055;BME280;46939;48.940;8.258;2022-11-06T04:13:50;100638.81;;;12.49;44.75
61055;BME280;46939;48.940;8.258;2022-11-06T04:16:32;100638.38;;;12.45;45.20
61055;BME280;46939;48.940;8.258;2022-11-06T04:19:00;100644.94;;;12.42;44.79
61055;BME280;46939;48.940;8.258;2022-11-06T04:21:41;100648.03;;;12.46;44.70
61055;BME280;46939;48.940;8.258;2022-11-06T04:24:22;100659.41;;;12.40;44.31
61055;BME280;46939;48.940;8.258;2022-11-06T04:27:22;100666.31;;;12.34;45.06
61055;BME280;46939;48.940;8.258;2022-11-06T04:30:02;100669.59;;;12.36;44.88
61055;BME280;46939;48.940;8.258;2022-11-06T04:32:52;100663.47;;;12.36;45.13
61055;BME280;46939;48.940;8.258;2022-11-06T04:35:26;100663.00;;;12.54;44.96
61055;BME280;46939;48.940;8.258;2022-11-06T04:38:01;100668.50;;;12.52;45.18
61055;BME280;46939;48.940;8.258;2022-11-06T04:40:34;100677.63;;;12.43;44.99
61055;BME280;46939;48.940;8.258;2022-11-06T04:43:08;100682.13;;;12.42;45.67
61055;BME280;46939;48.940;8.258;2022-11-06T04:45:44;100684.19;;;12.47;45.44
61055;BME280;46939;48.940;8.258;2022-11-06T04:48:17;100681.16;;;12.50;46.06
61055;BME280;46939;48.940;8.258;2022-11-06T04:50:49;100687.72;;;12.54;46.29
61055;BME280;46939;48.940;8.258;2022-11-06T04:53:18;100693.94;;;12.61;46.44
61055;BME280;46939;48.940;8.258;2022-11-06T04:55:48;100702.13;;;12.66;46.22
61055;BME280;46939;48.940;8.258;2022-11-06T04:58:18;100686.69;;;12.77;46.99
61055;BME280;46939;48.940;8.258;2022-11-06T05:00:49;100688.97;;;12.86;46.70
61055;BME280;46939;48.940;8.258;2022-11-06T05:03:20;100690.03;;;12.92;47.18
61055;BME280;46939;48.940;8.258;2022-11-06T05:05:48;100683.31;;;12.96;46.83
61055;BME280;46939;48.940;8.258;2022-11-06T05:08:18;100677.19;;;13.02;47.43
61055;BME280;46939;48.940;8.258;2022-11-06T05:10:47;100678.09;;;13.16;47.55
61055;BME280;46939;48.940;8.258;2022-11-06T05:13:15;100668.97;;;13.25;47.91
61055;BME280;46939;48.940;8.258;2022-11-06T05:15:44;100677.38;;;13.29;47.76
61055;BME280;46939;48.940;8.258;2022-11-06T05:18:12;100694.56;;;13.33;47.43
61055;BME280;46939;48.940;8.258;2022-11-06T05:20:43;100692.16;;;13.38;47.42
61055;BME280;46939;48.940;8.258;2022-11-06T05:23:11;100686.84;;;13.38;47.54
61055;BME280;46939;48.940;8.258;2022-11-06T05:25:38;100682.13;;;13.40;47.32
61055;BME280;46939;48.940;8.258;2022-11-06T05:28:07;100677.22;;;13.43;47.24
61055;BME280;46939;48.940;8.258;2022-11-06T05:30:36;100678.84;;;13.38;47.22
61055;BME280;46939;48.940;8.258;2022-11-06T05:33:04;100678.63;;;13.33;47.15
61055;BME280;46939;48.940;8.258;2022-11-06T05:35:33;100672.25;;;13.27;47.82
61055;BME280;46939;48.940;8.258;2022-11-06T05:38:04;100667.69;;;13.21;47.39
61055;BME280;46939;48.940;8.258;2022-11-06T05:40:32;100649.66;;;13.16;47.48
61055;BME280;46939;48.940;8.258;2022-11-06T05:43:00;100641.06;;;13.21;47.07
61055;BME280;46939;48.940;8.258;2022-11-06T05:45:29;100648.69;;;13.24;47.37
61055;BME280;46939;48.940;8.258;2022-11-06T05:47:57;100647.06;;;13.30;47.25
61055;BME280;46939;48.940;8.258;2022-11-06T05:50:25;100635.34;;;13.17;47.23
61055;BME280;46939;48.940;8.258;2022-11-06T05:52:54;100623.44;;;13.13;46.98
61055;BME280;46939;48.940;8.258;2022-11-06T05:55:25;100619.06;;;12.92;46.90
61055;BME280;46939;48.940;8.258;2022-11-06T05:57:53;100622.22;;;12.75;47.24
61055;BME280;46939;48.940;8.258;2022-11-06T06:00:22;100620.97;;;12.70;46.99
61055;BME280;46939;48.940;8.258;2022-11-06T06:02:50;100615.63;;;12.64;47.31
61055;BME280;46939;48.940;8.258;2022-11-06T06:05:18;100618.88;;;12.59;47.43
61055;BME280;46939;48.940;8.258;2022-11-06T06:07:47;100614.25;;;12.75;46.81
61055;BME280;46939;48.940;8.258;2022-11-06T06:10:15;100607.19;;;12.88;47.09
61055;BME280;46939;48.940;8.258;2022-11-06T06:12:48;100604.97;;;12.99;46.84
61055;BME280;46939;48.940;8.258;2022-11-06T06:15:16;100602.28;;;12.92;46.73
61055;BME280;46939;48.940;8.258;2022-11-06T06:17:44;100603.97;;;13.00;46.26
61055;BME280;46939;48.940;8.258;2022-11-06T06:20:13;100593.91;;;12.95;46.83
61055;BME280;46939;48.940;8.258;2022-11-06T06:22:41;100592.53;;;13.06;46.25
61055;BME280;46939;48.940;8.258;2022-11-06T06:25:10;100589.91;;;13.12;46.19
61055;BME280;46939;48.940;8.258;2022-11-06T06:27:38;100574.91;;;12.98;46.46
61055;BME280;46939;48.940;8.258;2022-11-06T06:30:10;100575.84;;;12.77;46.58
61055;BME280;46939;48.940;8.258;2022-11-06T06:32:39;100559.06;;;12.83;46.66
61055;BME280;46939;48.940;8.258;2022-11-06T06:35:08;100555.97;;;12.73;46.98
61055;BME280;46939;48.940;8.258;2022-11-06T06:37:37;100553.88;;;12.62;47.36
61055;BME280;46939;48.940;8.258;2022-11-06T06:40:06;100543.22;;;12.55;47.19
61055;BME280;46939;48.940;8.258;2022-11-06T06:42:35;100534.84;;;12.58;47.19
61055;BME280;46939;48.940;8.258;2022-11-06T06:45:04;100536.75;;;12.71;47.46
61055;BME280;46939;48.940;8.258;2022-11-06T06:47:35;100525.66;;;12.61;46.96
61055;BME280;46939;48.940;8.258;2022-11-06T06:50:04;100523.03;;;12.67;47.28
61055;BME280;46939;48.940;8.258;2022-11-06T06:52:33;100506.75;;;12.84;46.95
61055;BME280;46939;48.940;8.258;2022-11-06T06:55:01;100503.66;;;12.87;46.51
61055;BME280;46939;48.940;8.258;2022-11-06T06:57:30;100501.66;;;12.89;46.56
61055;BME280;46939;48.940;8.258;2022-11-06T07:00:01;100482.41;;;12.87;46.38
61055;BME280;46939;48.940;8.258;2022-11-06T07:02:29;100489.59;;;12.93;46.43
61055;BME280;46939;48.940;8.258;2022-11-06T07:05:00;100483.03;;;12.89;46.39
61055;BME280;46939;48.940;8.258;2022-11-06T07:07:28;100481.22;;;12.96;46.70
61055;BME280;46939;48.940;8.258;2022-11-06T07:09:57;100481.22;;;12.96;46.55
61055;BME280;46939;48.940;8.258;2022-11-06T07:12:25;100466.09;;;12.97;46.51
61055;BME280;46939;48.940;8.258;2022-11-06T07:14:54;100467.72;;;12.98;46.21
61055;BME280;46939;48.940;8.258;2022-11-06T07:17:22;100460.94;;;12.95;46.37
61055;BME280;46939;48.940;8.258;2022-11-06T07:19:51;100455.03;;;13.00;46.12
61055;BME280;46939;48.940;8.258;2022-11-06T07:22:29;100444.41;;;13.06;46.40
61055;BME280;46939;48.940;8.258;2022-11-06T07:24:58;100448.53;;;13.15;45.79
61055;BME280;46939;48.940;8.258;2022-11-06T07:27:26;100446.06;;;13.07;45.73
61055;BME280;46939;48.940;8.258;2022-11-06T07:29:55;100453.44;;;13.18;46.03
61055;BME280;46939;48.940;8.258;2022-11-06T07:32:24;100459.78;;;13.11;46.06
61055;BME280;46939;48.940;8.258;2022-11-06T07:34:53;100461.81;;;13.15;46.40
61055;BME280;46939;48.940;8.258;2022-11-06T07:37:21;100462.59;;;13.03;46.60
61055;BME280;46939;48.940;8.258;2022-11-06T07:39:52;100459.75;;;13.04;46.72
61055;BME280;46939;48.940;8.258;2022-11-06T07:42:20;100476.94;;;13.02;47.37
61055;BME280;46939;48.940;8.258;2022-11-06T07:44:49;100481.25;;;13.09;47.40
61055;BME280;46939;48.940;8.258;2022-11-06T07:47:19;100481.91;;;13.25;47.20
61055;BME280;46939;48.940;8.258;2022-11-06T07:49:48;100488.59;;;13.14;47.81
61055;BME280;46939;48.940;8.258;2022-11-06T07:52:16;100497.81;;;13.18;48.08
61055;BME280;46939;48.940;8.258;2022-11-06T07:54:44;100509.56;;;13.43;47.86
61055;BME280;46939;48.940;8.258;2022-11-06T07:57:16;100506.09;;;13.43;48.28
61055;BME280;46939;48.940;8.258;2022-11-06T07:59:44;100512.44;;;13.55;48.63
61055;BME280;46939;48.940;8.258;2022-11-06T08:02:12;100520.63;;;13.60;48.21
61055;BME280;46939;48.940;8.258;2022-11-06T08:04:42;100525.97;;;13.54;48.56
61055;BME280;46939;48.940;8.258;2022-11-06T08:07:10;100528.44;;;13.82;48.69
61055;BME280;46939;48.940;8.258;2022-11-06T08:09:38;100528.63;;;14.00;47.50
61055;BME280;46939;48.940;8.258;2022-11-06T08:12:07;100534.78;;;13.81;48.02
61055;BME280;46939;48.940;8.258;2022-11-06T08:14:38;100557.94;;;13.74;48.53
61055;BME280;46939;48.940;8.258;2022-11-06T08:17:06;100589.28;;;13.91;48.50
61055;BME280;46939;48.940;8.258;2022-11-06T08:19:35;100588.22;;;13.66;48.82
61055;BME280;46939;48.940;8.258;2022-11-06T08:22:03;100577.53;;;13.53;48.84
61055;BME280;46939;48.940;8.258;2022-11-06T08:24:33;100562.44;;;14.13;47.28
61055;BME280;46939;48.940;8.258;2022-11-06T08:27:01;100557.69;;;14.28;46.96
61055;BME280;46939;48.940;8.258;2022-11-06T08:29:30;100552.97;;;14.37;46.78
61055;BME280;46939;48.940;8.258;2022-11-06T08:32:00;100542.88;;;14.65;46.32
61055;BME280;46939;48.940;8.258;2022-11-06T08:34:29;100537.47;;;14.85;46.66
61055;BME280;46939;48.940;8.258;2022-11-06T08:36:57;100537.22;;;15.00;46.00
61055;BME280;46939;48.940;8.258;2022-11-06T08:39:25;100535.53;;;15.06;45.91
61055;BME280;46939;48.940;8.258;2022-11-06T08:41:54;100530.78;;;15.14;46.40
61055;BME280;46939;48.940;8.258;2022-11-06T08:44:22;100526.78;;;15.30;45.56
61055;BME280;46939;48.940;8.258;2022-11-06T08:46:51;100537.72;;;15.22;45.48
61055;BME280;46939;48.940;8.258;2022-11-06T08:49:22;100521.47;;;14.85;46.29
61055;BME280;46939;48.940;8.258;2022-11-06T08:51:50;100507.69;;;14.95;46.68
61055;BME280;46939;48.940;8.258;2022-11-06T08:54:19;100500.19;;;15.10;46.12
61055;BME280;46939;48.940;8.258;2022-11-06T08:56:47;100495.38;;;14.94;45.96
61055;BME280;46939;48.940;8.258;2022-11-06T08:59:16;100479.31;;;15.07;45.86
61055;BME280;46939;48.940;8.258;2022-11-06T09:01:44;100482.44;;;14.91;46.71
61055;BME280;46939;48.940;8.258;2022-11-06T09:04:12;100479.38;;;15.26;45.53
61055;BME280;46939;48.940;8.258;2022-11-06T09:06:43;100472.81;;;15.22;45.84
61055;BME280;46939;48.940;8.258;2022-11-06T09:09:11;100458.97;;;15.63;45.77
61055;BME280;46939;48.940;8.258;2022-11-06T09:11:40;100457.13;;;15.63;45.41
61055;BME280;46939;48.940;8.258;2022-11-06T09:14:08;100445.03;;;15.86;44.99
61055;BME280;46939;48.940;8.258;2022-11-06T09:16:37;100446.81;;;15.92;45.02
61055;BME280;46939;48.940;8.258;2022-11-06T09:19:05;100432.75;;;16.03;44.90
61055;BME280;46939;48.940;8.258;2022-11-06T09:21:33;100432.75;;;16.03;44.17
61055;BME280;46939;48.940;8.258;2022-11-06T09:24:05;100439.03;;;16.09;44.36
61055;BME280;46939;48.940;8.258;2022-11-06T09:26:34;100437.41;;;16.08;44.19
61055;BME280;46939;48.940;8.258;2022-11-06T09:29:02;100429.41;;;16.26;44.07
61055;BME280;46939;48.940;8.258;2022-11-06T09:31:31;100429.84;;;16.42;43.74
61055;BME280;46939;48.940;8.258;2022-11-06T09:33:59;100421.81;;;16.72;43.41
61055;BME280;46939;48.940;8.258;2022-11-06T09:36:27;100414.00;;;16.89;43.12
61055;BME280;46939;48.940;8.258;2022-11-06T09:38:56;100408.09;;;16.98;42.67
61055;BME280;46939;48.940;8.258;2022-11-06T09:41:33;100409.78;;;17.23;42.53
61055;BME280;46939;48.940;8.258;2022-11-06T09:44:21;100410.16;;;17.38;42.45
61055;BME280;46939;48.940;8.258;2022-11-06T09:46:54;100403.84;;;17.44;42.21
61055;BME280;46939;48.940;8.258;2022-11-06T09:49:26;100393.28;;;17.38;41.46
61055;BME280;46939;48.940;8.258;2022-11-06T09:52:00;100394.44;;;17.53;41.57
61055;BME280;46939;48.940;8.258;2022-11-06T09:54:33;100383.59;;;17.60;41.41
61055;BME280;46939;48.940;8.258;2022-11-06T09:57:12;100373.81;;;17.66;41.32
61055;BME280;46939;48.940;8.258;2022-11-06T09:59:43;100376.75;;;17.64;41.09
61055;BME280;46939;48.940;8.258;2022-11-06T10:02:27;100372.88;;;17.48;41.33
61055;BME280;46939;48.940;8.258;2022-11-06T10:05:01;100364.16;;;17.65;41.21
61055;BME280;46939;48.940;8.258;2022-11-06T10:07:34;100367.06;;;17.63;40.83
61055;BME280;46939;48.940;8.258;2022-11-06T10:10:04;100367.75;;;17.58;41.10
61055;BME280;46939;48.940;8.258;2022-11-06T10:12:45;100352.13;;;17.67;40.45
61055;BME280;46939;48.940;8.258;2022-11-06T10:15:23;100340.63;;;17.78;40.66
61055;BME280;46939;48.940;8.258;2022-11-06T10:17:58;100329.56;;;17.75;41.11
61055;BME280;46939;48.940;8.258;2022-11-06T10:20:30;100324.88;;;17.82;40.97
61055;BME280;46939;48.940;8.258;2022-11-06T10:23:03;100320.69;;;17.74;41.53
61055;BME280;46939;48.940;8.258;2022-11-06T10:25:44;100321.41;;;17.81;41.57
61055;BME280;46939;48.940;8.258;2022-11-06T10:28:26;100320.81;;;17.91;41.31
61055;BME280;46939;48.940;8.258;2022-11-06T10:31:19;100313.63;;;18.09;41.26
61055;BME280;46939;48.940;8.258;2022-11-06T10:34:01;100296.09;;;18.29;41.22
61055;BME280;46939;48.940;8.258;2022-11-06T10:36:36;100287.53;;;18.33;41.19
61055;BME280;46939;48.940;8.258;2022-11-06T10:39:12;100291.69;;;18.40;40.94
61055;BME280;46939;48.940;8.258;2022-11-06T10:41:46;100286.25;;;18.52;40.99
61055;BME280;46939;48.940;8.258;2022-11-06T10:44:23;100273.50;;;18.59;40.76
61055;BME280;46939;48.940;8.258;2022-11-06T10:46:59;100263.91;;;18.63;40.73
61055;BME280;46939;48.940;8.258;2022-11-06T10:49:35;100261.69;;;18.72;40.84
61055;BME280;46939;48.940;8.258;2022-11-06T10:52:17;100258.50;;;18.75;39.94
61055;BME280;46939;48.940;8.258;2022-11-06T10:55:01;100249.63;;;18.74;40.28
61055;BME280;46939;48.940;8.258;2022-11-06T10:57:39;100256.56;;;18.70;40.71
61055;BME280;46939;48.940;8.258;2022-11-06T11:00:14;100249.63;;;18.58;41.02
61055;BME280;46939;48.940;8.258;2022-11-06T11:02:44;100252.44;;;18.68;41.45
61055;BME280;46939;48.940;8.258;2022-11-06T11:05:16;100253.56;;;18.84;40.92
61055;BME280;46939;48.940;8.258;2022-11-06T11:07:47;100239.63;;;18.87;40.53
61055;BME280;46939;48.940;8.258;2022-11-06T11:10:30;100232.16;;;18.89;40.97
61055;BME280;46939;48.940;8.258;2022-11-06T11:13:00;100225.41;;;18.86;41.00
61055;BME280;46939;48.940;8.258;2022-11-06T11:15:38;100221.56;;;18.82;41.27
61055;BME280;46939;48.940;8.258;2022-11-06T11:18:18;100219.00;;;18.87;41.17
61055;BME280;46939;48.940;8.258;2022-11-06T11:21:04;100218.09;;;18.82;41.47
61055;BME280;46939;48.940;8.258;2022-11-06T11:23:34;100209.34;;;19.08;40.55
61055;BME280;46939;48.940;8.258;2022-11-06T11:26:19;100211.44;;;19.23;40.85
61055;BME280;46939;48.940;8.258;2022-11-06T11:28:51;100200.63;;;19.40;40.81
61055;BME280;46939;48.940;8.258;2022-11-06T11:31:27;100192.81;;;19.60;40.39
61055;BME280;46939;48.940;8.258;2022-11-06T11:33:58;100192.41;;;19.68;39.28
61055;BME280;46939;48.940;8.258;2022-11-06T11:36:46;100181.50;;;19.80;39.35
61055;BME280;46939;48.940;8.258;2022-11-06T11:39:15;100169.47;;;19.88;39.22
61055;BME280;46939;48.940;8.258;2022-11-06T11:41:45;100159.56;;;19.93;38.78
61055;BME280;46939;48.940;8.258;2022-11-06T11:44:14;100159.38;;;20.00;38.02
61055;BME280;46939;48.940;8.258;2022-11-06T11:46:51;100159.38;;;20.00;37.73
61055;BME280;46939;48.940;8.258;2022-11-06T11:49:28;100155.94;;;20.10;37.31
61055;BME280;46939;48.940;8.258;2022-11-06T11:51:58;100155.25;;;20.19;37.06
61055;BME280;46939;48.940;8.258;2022-11-06T11:54:29;100152.06;;;20.28;36.65
61055;BME280;46939;48.940;8.258;2022-11-06T11:57:00;100152.38;;;20.31;36.82
61055;BME280;46939;48.940;8.258;2022-11-06T11:59:31;100152.47;;;20.41;37.19
61055;BME280;46939;48.940;8.258;2022-11-06T12:02:13;100138.75;;;20.48;37.29
61055;BME280;46939;48.940;8.258;2022-11-06T12:04:44;100131.06;;;20.57;37.04
61055;BME280;46939;48.940;8.258;2022-11-06T12:07:22;100116.63;;;20.73;36.84
61055;BME280;46939;48.940;8.258;2022-11-06T12:09:52;100127.38;;;20.68;37.74
61055;BME280;46939;48.940;8.258;2022-11-06T12:12:22;100112.06;;;20.79;37.73
61055;BME280;46939;48.940;8.258;2022-11-06T12:15:09;100113.72;;;20.80;37.59
61055;BME280;46939;48.940;8.258;2022-11-06T12:17:50;100110.50;;;20.88;37.83
61055;BME280;46939;48.940;8.258;2022-11-06T12:20:22;100115.53;;;20.74;37.25
61055;BME280;46939;48.940;8.258;2022-11-06T12:22:53;100121.28;;;20.93;37.03
61055;BME280;46939;48.940;8.258;2022-11-06T12:25:25;100122.88;;;20.84;36.64
61055;BME280;46939;48.940;8.258;2022-11-06T12:27:58;100113.78;;;20.95;37.13
61055;BME280;46939;48.940;8.258;2022-11-06T12:30:28;100102.44;;;20.93;37.34
61055;BME280;46939;48.940;8.258;2022-11-06T12:33:03;100115.41;;;21.06;37.17
61055;BME280;46939;48.940;8.258;2022-11-06T12:35:40;100113.16;;;20.78;37.10
61055;BME280;46939;48.940;8.258;2022-11-06T12:38:18;100106.22;;;20.97;36.45
61055;BME280;46939;48.940;8.258;2022-11-06T12:40:54;100105.47;;;21.07;36.43
61055;BME280;46939;48.940;8.258;2022-11-06T12:43:30;100093.38;;;21.14;37.16
61055;BME280;46939;48.940;8.258;2022-11-06T12:46:11;100092.56;;;21.14;37.10
61055;BME280;46939;48.940;8.258;2022-11-06T12:48:53;100101.41;;;20.99;37.88
61055;BME280;46939;48.940;8.258;2022-11-06T12:51:33;100097.34;;;20.91;37.87
61055;BME280;46939;48.940;8.258;2022-11-06T12:54:17;100077.34;;;20.82;38.07
61055;BME280;46939;48.940;8.258;2022-11-06T12:56:54;100075.19;;;20.79;37.93
61055;BME280;46939;48.940;8.258;2022-11-06T12:59:36;100071.22;;;20.92;38.34
61055;BME280;46939;48.940;8.258;2022-11-06T13:02:26;100059.13;;;21.05;38.19
61055;BME280;46939;48.940;8.258;2022-11-06T13:05:04;100051.09;;;21.15;37.78
61055;BME280;46939;48.940;8.258;2022-11-06T13:07:49;100052.66;;;21.06;37.92
61055;BME280;46939;48.940;8.258;2022-11-06T13:10:27;100059.72;;;21.17;37.93
61055;BME280;46939;48.940;8.258;2022-11-06T13:13:09;100058.38;;;21.19;37.96
61055;BME280;46939;48.940;8.258;2022-11-06T13:15:48;100054.06;;;21.18;38.03
61055;BME280;46939;48.940;8.258;2022-11-06T13:18:23;100054.84;;;21.09;37.56
61055;BME280;46939;48.940;8.258;2022-11-06T13:20:59;100051.56;;;21.02;38.16